sensor_id;sensor_type;location;lat;lon;timestamp;pressure;altitude;pressure_sealevel;temperature;humidity
11444;BME280;5778;47.856;12.154;2023-01-26T00:01:56;96710.91;;;0.10;100.00
11444;BME280;5778;47.856;12.154;2023-01-26T00:04:24;96704.72;;;0.11;100.00
11444;BME280;5778;47.856;12.154;2023-01-26T00:06:51;96701.28;;;0.10;100.00
11444;BME280;5778;47.856;12.154;2023-01-26T00:09:19;96700.41;;;0.18;100.00
11444;BME280;5778;47.856;12.154;2023-01-26T00:11:46;96694.44;;;0.24;100.00
11444;BME280;5778;47.856;12.154;2023-01-26T00:14:15;96695.44;;;0.23;100.00
11444;BME280;5778;47.856;12.154;2023-01-26T00:16:42;96693.63;;;0.23;100.00
11444;BME280;5778;47.856;12.154;2023-01-26T00:19:09;96684.88;;;0.16;100.00
11444;BME280;5778;47.856;12.154;2023-01-26T00:21:38;96683.38;;;0.22;100.00
11444;BME280;5778;47.856;12.154;2023-01-26T00:24:06;96683.63;;;0.27;100.00
11444;BME280;5778;47.856;12.154;2023-01-26T00:26:33;96676.88;;;0.18;100.00
11444;BME280;5778;47.856;12.154;2023-01-26T00:29:02;96677.88;;;0.17;100.00
11444;BME280;5778;47.856;12.154;2023-01-26T00:31:32;96673.72;;;0.22;100.00
11444;BME280;5778;47.856;12.154;2023-01-26T00:34:00;96674.44;;;0.16;100.00
11444;BME280;5778;47.856;12.154;2023-01-26T00:36:26;96677.66;;;0.18;100.00
11444;BME280;5778;47.856;12.154;2023-01-26T00:41:21;96668.03;;;0.19;100.00
11444;BME280;5778;47.856;12.154;2023-01-26T00:44:06;96677.31;;;0.07;100.00
11444;BME280;5778;47.856;12.154;2023-01-26T00:46:35;96672.16;;;0.13;100.00
11444;BME280;5778;47.856;12.154;2023-01-26T00:49:06;96668.38;;;0.01;100.00
11444;BME280;5778;47.856;12.154;2023-01-26T00:51:34;96671.19;;;0.00;100.00
11444;BME280;5778;47.856;12.154;2023-01-26T00:54:04;96664.59;;;0.04;100.00
11444;BME280;5778;47.856;12.154;2023-01-26T00:56:31;96667.75;;;0.14;100.00
11444;BME280;5778;47.856;12.154;2023-01-26T00:58:58;96664.69;;;0.25;100.00
11444;BME280;5778;47.856;12.154;2023-01-26T01:01:25;96668.13;;;0.25;100.00
11444;BME280;5778;47.856;12.154;2023-01-26T01:03:55;96670.47;;;0.20;100.00
11444;BME280;5778;47.856;12.154;2023-01-26T01:06:22;96667.47;;;0.23;100.00
11444;BME280;5778;47.856;12.154;2023-01-26T01:08:49;96668.03;;;0.19;100.00
11444;BME280;5778;47.856;12.154;2023-01-26T01:11:16;96676.41;;;0.14;100.00
11444;BME280;5778;47.856;12.154;2023-01-26T01:13:44;96676.47;;;-0.08;100.00
11444;BME280;5778;47.856;12.154;2023-01-26T01:16:14;96673.22;;;-0.10;100.00
11444;BME280;5778;47.856;12.154;2023-01-26T01:18:42;96672.56;;;-0.12;100.00
11444;BME280;5778;47.856;12.154;2023-01-26T01:21:13;96676.91;;;-0.19;100.00
11444;BME280;5778;47.856;12.154;2023-01-26T01:23:42;96668.44;;;-0.21;100.00
11444;BME280;5778;47.856;12.154;2023-01-26T01:26:11;96674.63;;;-0.22;100.00
11444;BME280;5778;47.856;12.154;2023-01-26T01:28:39;96670.69;;;-0.18;100.00
11444;BME280;5778;47.856;12.154;2023-01-26T01:31:08;96673.75;;;-0.15;100.00
11444;BME280;5778;47.856;12.154;2023-01-26T01:33:39;96665.38;;;-0.10;100.00
11444;BME280;5778;47.856;12.154;2023-01-26T01:36:07;96666.56;;;-0.13;100.00
11444;BME280;5778;47.856;12.154;2023-01-26T01:38:40;96662.66;;;-0.17;100.00
11444;BME280;5778;47.856;12.154;2023-01-26T01:41:08;96664.44;;;-0.17;100.00
11444;BME280;5778;47.856;12.154;2023-01-26T01:43:38;96663.94;;;-0.13;100.00
11444;BME280;5778;47.856;12.154;2023-01-26T01:48:39;96673.44;;;-0.34;100.00
11444;BME280;5778;47.856;12.154;2023-01-26T01:51:14;96672.91;;;-0.29;100.00
11444;BME280;5778;47.856;12.154;2023-01-26T01:53:47;96667.28;;;-0.41;100.00
11444;BME280;5778;47.856;12.154;2023-01-26T01:56:23;96656.56;;;-0.46;100.00
11444;BME280;5778;47.856;12.154;2023-01-26T01:58:54;96656.22;;;-0.43;100.00
11444;BME280;5778;47.856;12.154;2023-01-26T02:01:24;96654.31;;;-0.49;100.00
11444;BME280;5778;47.856;12.154;2023-01-26T02:03:55;96651.50;;;-0.47;100.00
11444;BME280;5778;47.856;12.154;2023-01-26T02:06:30;96649.72;;;-0.47;100.00
11444;BME280;5778;47.856;12.154;2023-01-26T02:09:03;96646.72;;;-0.44;100.00
11444;BME280;5778;47.856;12.154;2023-01-26T02:11:35;96647.09;;;-0.47;100.00
11444;BME280;5778;47.856;12.154;2023-01-26T02:14:06;96649.34;;;-0.44;100.00
11444;BME280;5778;47.856;12.154;2023-01-26T02:16:35;96641.25;;;-0.49;100.00
11444;BME280;5778;47.856;12.154;2023-01-26T02:19:09;96634.38;;;-0.50;100.00
11444;BME280;5778;47.856;12.154;2023-01-26T02:21:39;96635.38;;;-0.51;100.00
11444;BME280;5778;47.856;12.154;2023-01-26T02:24:15;96632.41;;;-0.48;100.00
11444;BME280;5778;47.856;12.154;2023-01-26T02:26:51;96627.81;;;-0.46;100.00
11444;BME280;5778;47.856;12.154;2023-01-26T02:29:20;96635.66;;;-0.46;100.00
11444;BME280;5778;47.856;12.154;2023-01-26T02:31:48;96633.22;;;-0.47;100.00
11444;BME280;5778;47.856;12.154;2023-01-26T02:34:15;96631.06;;;-0.44;100.00
11444;BME280;5778;47.856;12.154;2023-01-26T02:36:42;96627.28;;;-0.42;100.00
11444;BME280;5778;47.856;12.154;2023-01-26T02:39:21;96627.28;;;-0.42;100.00
11444;BME280;5778;47.856;12.154;2023-01-26T02:41:53;96624.66;;;-0.42;100.00
11444;BME280;5778;47.856;12.154;2023-01-26T02:44:39;96622.75;;;-0.47;100.00
11444;BME280;5778;47.856;12.154;2023-01-26T02:47:11;96610.69;;;-0.48;100.00
11444;BME280;5778;47.856;12.154;2023-01-26T02:49:41;96615.91;;;-0.48;100.00
11444;BME280;5778;47.856;12.154;2023-01-26T02:52:19;96616.38;;;-0.45;100.00
11444;BME280;5778;47.856;12.154;2023-01-26T02:55:12;96611.16;;;-0.45;100.00
11444;BME280;5778;47.856;12.154;2023-01-26T02:57:53;96611.16;;;-0.45;100.00
11444;BME280;5778;47.856;12.154;2023-01-26T03:00:24;96610.97;;;-0.43;100.00
11444;BME280;5778;47.856;12.154;2023-01-26T03:02:53;96610.16;;;-0.44;100.00
11444;BME280;5778;47.856;12.154;2023-01-26T03:05:23;96601.66;;;-0.38;100.00
11444;BME280;5778;47.856;12.154;2023-01-26T03:07:52;96595.72;;;-0.32;100.00
11444;BME280;5778;47.856;12.154;2023-01-26T03:10:22;96596.03;;;-0.35;100.00
11444;BME280;5778;47.856;12.154;2023-01-26T03:12:52;96596.75;;;-0.41;100.00
11444;BME280;5778;47.856;12.154;2023-01-26T03:15:19;96598.25;;;-0.47;100.00
11444;BME280;5778;47.856;12.154;2023-01-26T03:18:19;96601.06;;;-0.48;100.00
11444;BME280;5778;47.856;12.154;2023-01-26T03:21:10;96598.09;;;-0.45;100.00
11444;BME280;5778;47.856;12.154;2023-01-26T03:23:55;96603.03;;;-0.50;100.00
11444;BME280;5778;47.856;12.154;2023-01-26T03:26:41;96590.34;;;-0.53;100.00
11444;BME280;5778;47.856;12.154;2023-01-26T03:29:29;96593.28;;;-0.56;100.00
11444;BME280;5778;47.856;12.154;2023-01-26T03:31:58;96588.63;;;-0.60;100.00
11444;BME280;5778;47.856;12.154;2023-01-26T03:34:26;96585.84;;;-0.59;100.00
11444;BME280;5778;47.856;12.154;2023-01-26T03:36:57;96584.47;;;-0.55;100.00
11444;BME280;5778;47.856;12.154;2023-01-26T03:39:33;96592.41;;;-0.48;100.00
11444;BME280;5778;47.856;12.154;2023-01-26T03:42:17;96579.97;;;-0.47;100.00
11444;BME280;5778;47.856;12.154;2023-01-26T03:45:04;96583.53;;;-0.39;100.00
11444;BME280;5778;47.856;12.154;2023-01-26T03:47:50;96589.25;;;-0.44;100.00
11444;BME280;5778;47.856;12.154;2023-01-26T03:50:34;96583.41;;;-0.46;100.00
11444;BME280;5778;47.856;12.154;2023-01-26T03:53:21;96589.34;;;-0.52;100.00
11444;BME280;5778;47.856;12.154;2023-01-26T03:56:09;96586.63;;;-0.58;100.00
11444;BME280;5778;47.856;12.154;2023-01-26T03:58:59;96575.66;;;-0.54;100.00
11444;BME280;5778;47.856;12.154;2023-01-26T04:01:36;96577.38;;;-0.47;100.00
11444;BME280;5778;47.856;12.154;2023-01-26T04:04:04;96570.34;;;-0.46;100.00
11444;BME280;5778;47.856;12.154;2023-01-26T04:06:49;96576.03;;;-0.43;100.00
11444;BME280;5778;47.856;12.154;2023-01-26T04:09:36;96578.81;;;-0.44;100.00
11444;BME280;5778;47.856;12.154;2023-01-26T04:12:05;96576.94;;;-0.36;100.00
11444;BME280;5778;47.856;12.154;2023-01-26T04:14:40;96579.53;;;-0.36;100.00
11444;BME280;5778;47.856;12.154;2023-01-26T04:17:27;96577.50;;;-0.26;100.00
11444;BME280;5778;47.856;12.154;2023-01-26T04:20:13;96569.75;;;-0.19;100.00
11444;BME280;5778;47.856;12.154;2023-01-26T04:22:57;96570.91;;;-0.22;100.00
11444;BME280;5778;47.856;12.154;2023-01-26T04:25:24;96573.47;;;-0.13;100.00
11444;BME280;5778;47.856;12.154;2023-01-26T04:27:53;96569.66;;;-0.26;100.00
11444;BME280;5778;47.856;12.154;2023-01-26T04:30:21;96566.41;;;-0.42;100.00
11444;BME280;5778;47.856;12.154;2023-01-26T04:32:52;96570.34;;;-0.46;100.00
11444;BME280;5778;47.856;12.154;2023-01-26T04:35:19;96556.50;;;-0.32;100.00
11444;BME280;5778;47.856;12.154;2023-01-26T04:37:47;96572.25;;;-0.26;100.00
11444;BME280;5778;47.856;12.154;2023-01-26T04:40:15;96562.63;;;-0.25;100.00
11444;BME280;5778;47.856;12.154;2023-01-26T04:42:44;96563.63;;;-0.26;100.00
11444;BME280;5778;47.856;12.154;2023-01-26T04:45:11;96554.81;;;-0.25;100.00
11444;BME280;5778;47.856;12.154;2023-01-26T04:47:40;96552.63;;;-0.36;100.00
11444;BME280;5778;47.856;12.154;2023-01-26T04:50:09;96561.47;;;-0.37;100.00
11444;BME280;5778;47.856;12.154;2023-01-26T04:52:36;96562.47;;;-0.38;100.00
11444;BME280;5778;47.856;12.154;2023-01-26T04:55:04;96561.47;;;-0.22;100.00
11444;BME280;5778;47.856;12.154;2023-01-26T04:57:33;96554.63;;;-0.38;100.00
11444;BME280;5778;47.856;12.154;2023-01-26T05:00:05;96558.00;;;-0.52;100.00
11444;BME280;5778;47.856;12.154;2023-01-26T05:02:33;96557.28;;;-0.46;100.00
11444;BME280;5778;47.856;12.154;2023-01-26T05:05:00;96555.22;;;-0.50;100.00
11444;BME280;5778;47.856;12.154;2023-01-26T05:07:31;96552.78;;;-0.52;100.00
11444;BME280;5778;47.856;12.154;2023-01-26T05:10:01;96552.16;;;-0.54;100.00
11444;BME280;5778;47.856;12.154;2023-01-26T05:12:49;96550.78;;;-0.50;100.00
11444;BME280;5778;47.856;12.154;2023-01-26T05:15:17;96561.97;;;-0.56;100.00
11444;BME280;5778;47.856;12.154;2023-01-26T05:18:11;96556.28;;;-0.59;100.00
11444;BME280;5778;47.856;12.154;2023-01-26T05:21:04;96550.16;;;-0.66;100.00
11444;BME280;5778;47.856;12.154;2023-01-26T05:23:45;96552.22;;;-0.62;100.00
11444;BME280;5778;47.856;12.154;2023-01-26T05:26:26;96558.06;;;-0.60;100.00
11444;BME280;5778;47.856;12.154;2023-01-26T05:29:00;96546.66;;;-0.59;100.00
11444;BME280;5778;47.856;12.154;2023-01-26T05:31:27;96545.66;;;-0.58;100.00
11444;BME280;5778;47.856;12.154;2023-01-26T05:33:54;96551.53;;;-0.42;100.00
11444;BME280;5778;47.856;12.154;2023-01-26T05:36:23;96543.91;;;-0.43;100.00
11444;BME280;5778;47.856;12.154;2023-01-26T05:38:51;96542.00;;;-0.49;100.00
11444;BME280;5778;47.856;12.154;2023-01-26T05:41:23;96542.69;;;-0.55;100.00
11444;BME280;5778;47.856;12.154;2023-01-26T05:44:13;96532.59;;;-0.58;100.00
11444;BME280;5778;47.856;12.154;2023-01-26T05:46:53;96535.84;;;-0.56;100.00
11444;BME280;5778;47.856;12.154;2023-01-26T05:49:21;96538.56;;;-0.49;100.00
11444;BME280;5778;47.856;12.154;2023-01-26T05:51:49;96548.13;;;-0.42;100.00
11444;BME280;5778;47.856;12.154;2023-01-26T05:54:19;96555.31;;;-0.44;100.00
11444;BME280;5778;47.856;12.154;2023-01-26T05:56:46;96556.47;;;-0.47;100.00
11444;BME280;5778;47.856;12.154;2023-01-26T05:59:14;96557.22;;;-0.38;100.00
11444;BME280;5778;47.856;12.154;2023-01-26T06:01:42;96554.63;;;-0.38;100.00
11444;BME280;5778;47.856;12.154;2023-01-26T06:04:10;96561.69;;;-0.47;100.00
11444;BME280;5778;47.856;12.154;2023-01-26T06:06:46;96563.84;;;-0.50;100.00
11444;BME280;5778;47.856;12.154;2023-01-26T06:09:27;96558.28;;;-0.47;100.00
11444;BME280;5778;47.856;12.154;2023-01-26T06:12:15;96563.22;;;-0.52;100.00
11444;BME280;5778;47.856;12.154;2023-01-26T06:14:54;96564.84;;;-0.51;100.00
11444;BME280;5778;47.856;12.154;2023-01-26T06:17:25;96566.84;;;-0.53;100.00
11444;BME280;5778;47.856;12.154;2023-01-26T06:19:58;96565.84;;;-0.52;100.00
11444;BME280;5778;47.856;12.154;2023-01-26T06:22:26;96562.25;;;-0.51;100.00
11444;BME280;5778;47.856;12.154;2023-01-26T06:24:55;96564.75;;;-0.57;100.00
11444;BME280;5778;47.856;12.154;2023-01-26T06:27:22;96560.22;;;-0.63;100.00
11444;BME280;5778;47.856;12.154;2023-01-26T06:29:51;96553.94;;;-0.54;100.00
11444;BME280;5778;47.856;12.154;2023-01-26T06:32:18;96561.25;;;-0.50;100.00
11444;BME280;5778;47.856;12.154;2023-01-26T06:34:58;96555.22;;;-0.50;100.00
11444;BME280;5778;47.856;12.154;2023-01-26T06:37:28;96561.16;;;-0.56;100.00
11444;BME280;5778;47.856;12.154;2023-01-26T06:39:57;96557.91;;;-0.58;100.00
11444;BME280;5778;47.856;12.154;2023-01-26T06:42:24;96553.94;;;-0.54;100.00
11444;BME280;5778;47.856;12.154;2023-01-26T06:44:51;96553.63;;;-0.51;100.00
11444;BME280;5778;47.856;12.154;2023-01-26T06:47:18;96555.94;;;-0.56;100.00
11444;BME280;5778;47.856;12.154;2023-01-26T06:49:46;96555.69;;;-0.47;100.00
11444;BME280;5778;47.856;12.154;2023-01-26T06:52:25;96559.19;;;-0.40;100.00
11444;BME280;5778;47.856;12.154;2023-01-26T06:54:59;96554.97;;;-0.41;100.00
11444;BME280;5778;47.856;12.154;2023-01-26T06:57:59;96556.31;;;-0.45;100.00
11444;BME280;5778;47.856;12.154;2023-01-26T07:00:45;96559.84;;;-0.38;100.00
11444;BME280;5778;47.856;12.154;2023-01-26T07:03:13;96560.09;;;-0.33;100.00
11444;BME280;5778;47.856;12.154;2023-01-26T07:05:40;96558.56;;;-0.28;100.00
11444;BME280;5778;47.856;12.154;2023-01-26T07:08:08;96556.41;;;-0.24;100.00
11444;BME280;5778;47.856;12.154;2023-01-26T07:10:37;96556.69;;;-0.19;100.00
11444;BME280;5778;47.856;12.154;2023-01-26T07:13:05;96551.00;;;-0.37;100.00
11444;BME280;5778;47.856;12.154;2023-01-26T07:15:32;96541.06;;;-0.42;100.00
11444;BME280;5778;47.856;12.154;2023-01-26T07:18:00;96541.81;;;-0.33;100.00
11444;BME280;5778;47.856;12.154;2023-01-26T07:20:27;96546.06;;;-0.17;100.00
11444;BME280;5778;47.856;12.154;2023-01-26T07:22:54;96544.50;;;-0.41;100.00
11444;BME280;5778;47.856;12.154;2023-01-26T07:25:22;96542.25;;;-0.44;100.00
11444;BME280;5778;47.856;12.154;2023-01-26T07:27:55;96545.41;;;-0.34;100.00
11444;BME280;5778;47.856;12.154;2023-01-26T07:30:23;96553.63;;;-0.37;100.00
11444;BME280;5778;47.856;12.154;2023-01-26T07:32:50;96550.38;;;-0.39;100.00
11444;BME280;5778;47.856;12.154;2023-01-26T07:35:17;96547.84;;;-0.32;100.00
11444;BME280;5778;47.856;12.154;2023-01-26T07:37:44;96545.06;;;-0.31;100.00
11444;BME280;5778;47.856;12.154;2023-01-26T07:40:12;96539.47;;;-0.28;100.00
11444;BME280;5778;47.856;12.154;2023-01-26T07:42:39;96546.06;;;-0.17;100.00
11444;BME280;5778;47.856;12.154;2023-01-26T07:45:19;96542.63;;;-0.18;100.00
11444;BME280;5778;47.856;12.154;2023-01-26T07:47:46;96536.41;;;-0.17;100.00
11444;BME280;5778;47.856;12.154;2023-01-26T07:50:13;96538.75;;;-0.22;100.00
11444;BME280;5778;47.856;12.154;2023-01-26T07:52:40;96532.56;;;-0.21;100.00
11444;BME280;5778;47.856;12.154;2023-01-26T07:55:09;96530.56;;;-0.19;100.00
11444;BME280;5778;47.856;12.154;2023-01-26T07:57:37;96532.28;;;-0.26;100.00
11444;BME280;5778;47.856;12.154;2023-01-26T08:00:07;96530.56;;;-0.19;100.00
11444;BME280;5778;47.856;12.154;2023-01-26T08:02:44;96530.00;;;-0.15;100.00
11444;BME280;5778;47.856;12.154;2023-01-26T08:05:15;96528.50;;;-0.09;100.00
11444;BME280;5778;47.856;12.154;2023-01-26T08:07:43;96529.50;;;-0.10;100.00
11444;BME280;5778;47.856;12.154;2023-01-26T08:10:11;96534.34;;;-0.07;100.00
11444;BME280;5778;47.856;12.154;2023-01-26T08:12:39;96536.69;;;-0.12;100.00
11444;BME280;5778;47.856;12.154;2023-01-26T08:15:07;96532.63;;;0.00;100.00
11444;BME280;5778;47.856;12.154;2023-01-26T08:17:35;96523.34;;;0.12;100.00
11444;BME280;5778;47.856;12.154;2023-01-26T08:20:05;96528.66;;;0.04;100.00
11444;BME280;5778;47.856;12.154;2023-01-26T08:22:33;96520.72;;;0.12;100.00
11444;BME280;5778;47.856;12.154;2023-01-26T08:25:01;96517.84;;;0.07;100.00
11444;BME280;5778;47.856;12.154;2023-01-26T08:27:28;96531.00;;;-0.01;100.00
11444;BME280;5778;47.856;12.154;2023-01-26T08:29:56;96527.22;;;-0.13;100.00
11444;BME280;5778;47.856;12.154;2023-01-26T08:32:24;96529.38;;;-0.17;100.00
11444;BME280;5778;47.856;12.154;2023-01-26T08:34:51;96526.31;;;-0.20;100.00
11444;BME280;5778;47.856;12.154;2023-01-26T08:37:20;96521.66;;;-0.24;100.00
11444;BME280;5778;47.856;12.154;2023-01-26T08:39:47;96531.56;;;-0.20;100.00
11444;BME280;5778;47.856;12.154;2023-01-26T08:42:14;96524.72;;;-0.21;100.00
11444;BME280;5778;47.856;12.154;2023-01-26T08:44:42;96528.59;;;-0.03;100.00
11444;BME280;5778;47.856;12.154;2023-01-26T08:47:09;96523.81;;;-0.13;100.00
11444;BME280;5778;47.856;12.154;2023-01-26T08:49:36;96516.47;;;-0.04;100.00
11444;BME280;5778;47.856;12.154;2023-01-26T08:52:04;96512.69;;;-0.01;100.00
11444;BME280;5778;47.856;12.154;2023-01-26T08:54:32;96517.22;;;-0.10;100.00
11444;BME280;5778;47.856;12.154;2023-01-26T08:57:00;96508.38;;;-0.23;100.00
11444;BME280;5778;47.856;12.154;2023-01-26T08:59:27;96508.59;;;-0.24;100.00
11444;BME280;5778;47.856;12.154;2023-01-26T09:01:55;96519.56;;;-0.29;100.00
11444;BME280;5778;47.856;12.154;2023-01-26T09:04:22;96511.56;;;-0.42;100.00
11444;BME280;5778;47.856;12.154;2023-01-26T09:06:51;96512.81;;;-0.38;100.00
11444;BME280;5778;47.856;12.154;2023-01-26T09:09:19;96513.78;;;-0.39;100.00
11444;BME280;5778;47.856;12.154;2023-01-26T09:11:48;96509.38;;;-0.24;100.00
11444;BME280;5778;47.856;12.154;2023-01-26T09:14:15;96507.38;;;-0.22;100.00
11444;BME280;5778;47.856;12.154;2023-01-26T09:16:43;96504.97;;;-0.09;100.00
11444;BME280;5778;47.856;12.154;2023-01-26T09:19:10;96517.38;;;-0.11;100.00
11444;BME280;5778;47.856;12.154;2023-01-26T09:21:37;96507.13;;;0.02;100.00
11444;BME280;5778;47.856;12.154;2023-01-26T09:24:05;96520.47;;;-0.08;100.00
11444;BME280;5778;47.856;12.154;2023-01-26T09:26:32;96514.34;;;0.00;100.00
11444;BME280;5778;47.856;12.154;2023-01-26T09:29:01;96517.84;;;-0.22;100.00
11444;BME280;5778;47.856;12.154;2023-01-26T09:31:28;96518.38;;;-0.12;100.00
11444;BME280;5778;47.856;12.154;2023-01-26T09:33:55;96520.91;;;-0.04;100.00
11444;BME280;5778;47.856;12.154;2023-01-26T09:36:23;96521.09;;;-0.06;100.00
11444;BME280;5778;47.856;12.154;2023-01-26T09:38:50;96514.06;;;-0.05;100.00
11444;BME280;5778;47.856;12.154;2023-01-26T09:41:33;96518.13;;;-0.03;100.00
11444;BME280;5778;47.856;12.154;2023-01-26T09:44:08;96522.81;;;-0.13;100.00
11444;BME280;5778;47.856;12.154;2023-01-26T09:46:48;96516.31;;;-0.17;100.00
11444;BME280;5778;47.856;12.154;2023-01-26T09:49:22;96519.47;;;-0.07;100.00
11444;BME280;5778;47.856;12.154;2023-01-26T09:51:56;96514.97;;;0.02;100.00
11444;BME280;5778;47.856;12.154;2023-01-26T09:54:26;96512.53;;;0.00;100.00
11444;BME280;5778;47.856;12.154;2023-01-26T09:56:59;96511.06;;;-0.02;100.00
11444;BME280;5778;47.856;12.154;2023-01-26T09:59:32;96515.22;;;0.07;100.00
11444;BME280;5778;47.856;12.154;2023-01-26T10:02:09;96517.75;;;-0.14;100.00
11444;BME280;5778;47.856;12.154;2023-01-26T10:04:46;96517.84;;;-0.22;100.00
11444;BME280;5778;47.856;12.154;2023-01-26T10:07:16;96523.44;;;-0.11;100.00
11444;BME280;5778;47.856;12.154;2023-01-26T10:09:45;96511.63;;;-0.07;100.00
11444;BME280;5778;47.856;12.154;2023-01-26T10:12:17;96519.66;;;-0.08;100.00
11444;BME280;5778;47.856;12.154;2023-01-26T10:14:50;96513.16;;;-0.27;100.00
11444;BME280;5778;47.856;12.154;2023-01-26T10:17:22;96507.38;;;-0.22;100.00
11444;BME280;5778;47.856;12.154;2023-01-26T10:19:59;96514.59;;;-0.24;100.00
11444;BME280;5778;47.856;12.154;2023-01-26T10:22:33;96513.78;;;-0.39;100.00
11444;BME280;5778;47.856;12.154;2023-01-26T10:25:01;96503.63;;;-0.34;100.00
11444;BME280;5778;47.856;12.154;2023-01-26T10:27:29;96497.22;;;-0.46;100.00
11444;BME280;5778;47.856;12.154;2023-01-26T10:30:15;96503.34;;;-0.39;100.00
11444;BME280;5778;47.856;12.154;2023-01-26T10:32:44;96503.28;;;-0.31;100.00
11444;BME280;5778;47.856;12.154;2023-01-26T10:35:16;96487.59;;;-0.31;100.00
11444;BME280;5778;47.856;12.154;2023-01-26T10:37:45;96490.38;;;-0.47;100.00
11444;BME280;5778;47.856;12.154;2023-01-26T10:40:13;96488.66;;;-0.40;100.00
11444;BME280;5778;47.856;12.154;2023-01-26T10:42:40;96494.25;;;-0.28;100.00
11444;BME280;5778;47.856;12.154;2023-01-26T10:45:43;96489.94;;;-0.36;100.00
11444;BME280;5778;47.856;12.154;2023-01-26T10:48:16;96484.53;;;-0.20;100.00
11444;BME280;5778;47.856;12.154;2023-01-26T10:50:45;96480.09;;;-0.34;100.00
11444;BME280;5778;47.856;12.154;2023-01-26T10:53:16;96472.34;;;-0.28;100.00
11444;BME280;5778;47.856;12.154;2023-01-26T10:55:58;96478.88;;;-0.38;100.00
11444;BME280;5778;47.856;12.154;2023-01-26T10:58:43;96476.69;;;-0.20;100.00
11444;BME280;5778;47.856;12.154;2023-01-26T11:01:13;96476.03;;;-0.22;100.00
11444;BME280;5778;47.856;12.154;2023-01-26T11:03:58;96474.34;;;-0.15;100.00
11444;BME280;5778;47.856;12.154;2023-01-26T11:06:27;96475.03;;;-0.07;100.00
11444;BME280;5778;47.856;12.154;2023-01-26T11:09:08;96483.78;;;0.00;100.00
11444;BME280;5778;47.856;12.154;2023-01-26T11:11:36;96480.19;;;-0.13;100.00
11444;BME280;5778;47.856;12.154;2023-01-26T11:14:10;96475.13;;;-0.15;100.00
11444;BME280;5778;47.856;12.154;2023-01-26T11:16:42;96474.50;;;-0.02;100.00
11444;BME280;5778;47.856;12.154;2023-01-26T11:19:13;96470.34;;;0.03;100.00
11444;BME280;5778;47.856;12.154;2023-01-26T11:21:45;96474.88;;;-0.05;100.00
11444;BME280;5778;47.856;12.154;2023-01-26T11:24:16;96464.69;;;-0.29;100.00
11444;BME280;5778;47.856;12.154;2023-01-26T11:27:21;96463.19;;;-0.23;100.00
11444;BME280;5778;47.856;12.154;2023-01-26T11:30:10;96467.03;;;-0.34;100.00
11444;BME280;5778;47.856;12.154;2023-01-26T11:32:46;96465.06;;;-0.32;100.00
11444;BME280;5778;47.856;12.154;2023-01-26T11:35:26;96460.00;;;-0.19;100.00
11444;BME280;5778;47.856;12.154;2023-01-26T11:37:59;96461.28;;;-0.15;100.00
11444;BME280;5778;47.856;12.154;2023-01-26T11:40:40;96460.69;;;0.04;100.00
11444;BME280;5778;47.856;12.154;2023-01-26T11:43:22;96466.16;;;0.09;100.00
11444;BME280;5778;47.856;12.154;2023-01-26T11:46:10;96455.28;;;0.05;100.00
11444;BME280;5778;47.856;12.154;2023-01-26T11:48:50;96450.16;;;-0.03;100.00
11444;BME280;5778;47.856;12.154;2023-01-26T11:51:30;96448.59;;;0.03;100.00
11444;BME280;5778;47.856;12.154;2023-01-26T11:54:18;96445.00;;;0.04;100.00
11444;BME280;5778;47.856;12.154;2023-01-26T11:56:55;96441.53;;;0.18;100.00
11444;BME280;5778;47.856;12.154;2023-01-26T11:59:33;96439.22;;;0.29;100.00
11444;BME280;5778;47.856;12.154;2023-01-26T12:02:05;96436.56;;;0.23;100.00
11444;BME280;5778;47.856;12.154;2023-01-26T12:04:44;96435.94;;;0.21;100.00
11444;BME280;5778;47.856;12.154;2023-01-26T12:07:18;96432.88;;;0.17;100.00
11444;BME280;5778;47.856;12.154;2023-01-26T12:09:49;96434.56;;;0.25;100.00
11444;BME280;5778;47.856;12.154;2023-01-26T12:12:22;96431.97;;;0.25;100.00
11444;BME280;5778;47.856;12.154;2023-01-26T12:14:55;96424.25;;;0.17;100.00
11444;BME280;5778;47.856;12.154;2023-01-26T12:17:35;96424.59;;;0.14;100.00
11444;BME280;5778;47.856;12.154;2023-01-26T12:20:20;96427.13;;;0.22;100.00
11444;BME280;5778;47.856;12.154;2023-01-26T12:25:26;96425.41;;;0.14;100.00
11444;BME280;5778;47.856;12.154;2023-01-26T12:28:00;96431.84;;;0.12;100.00
11444;BME280;5778;47.856;12.154;2023-01-26T12:30:36;96439.50;;;-0.01;100.00
11444;BME280;5778;47.856;12.154;2023-01-26T12:33:07;96439.38;;;-0.14;100.00
11444;BME280;5778;47.856;12.154;2023-01-26T12:35:55;96434.44;;;-0.23;100.00
11444;BME280;5778;47.856;12.154;2023-01-26T12:38:34;96431.44;;;-0.21;100.00
11444;BME280;5778;47.856;12.154;2023-01-26T12:41:10;96429.91;;;-0.15;100.00
11444;BME280;5778;47.856;12.154;2023-01-26T12:43:51;96428.19;;;-0.08;100.00
11444;BME280;5778;47.856;12.154;2023-01-26T12:46:23;96426.44;;;-0.01;100.00
11444;BME280;5778;47.856;12.154;2023-01-26T12:48:54;96424.94;;;-0.10;100.00
11444;BME280;5778;47.856;12.154;2023-01-26T12:51:29;96435.50;;;-0.18;100.00
11444;BME280;5778;47.856;12.154;2023-01-26T12:54:01;96436.47;;;-0.05;100.00
11444;BME280;5778;47.856;12.154;2023-01-26T12:56:33;96438.84;;;-0.24;100.00
11444;BME280;5778;47.856;12.154;2023-01-26T12:59:12;96432.25;;;-0.20;100.00
11444;BME280;5778;47.856;12.154;2023-01-26T13:04:09;96430.22;;;-0.04;100.00
11444;BME280;5778;47.856;12.154;2023-01-26T13:06:39;96431.06;;;-0.03;100.00
11444;BME280;5778;47.856;12.154;2023-01-26T13:09:20;96426.44;;;-0.01;100.00
11444;BME280;5778;47.856;12.154;2023-01-26T13:11:50;96430.31;;;0.03;100.00
11444;BME280;5778;47.856;12.154;2023-01-26T13:14:32;96422.38;;;0.11;100.00
11444;BME280;5778;47.856;12.154;2023-01-26T13:20:28;96418.50;;;0.07;100.00
11444;BME280;5778;47.856;12.154;2023-01-26T13:26:20;96419.56;;;0.12;100.00
11444;BME280;5778;47.856;12.154;2023-01-26T13:28:47;96412.31;;;-0.07;100.00
11444;BME280;5778;47.856;12.154;2023-01-26T13:31:29;96418.28;;;-0.13;100.00
11444;BME280;5778;47.856;12.154;2023-01-26T13:33:59;96410.75;;;-0.01;100.00
11444;BME280;5778;47.856;12.154;2023-01-26T13:36:31;96417.38;;;0.16;100.00
11444;BME280;5778;47.856;12.154;2023-01-26T13:39:03;96421.00;;;0.15;100.00